createdAt,value
2023-01-13T00:01:29.425Z,6.56
2023-01-13T00:04:32.043Z,6.26
2023-01-13T00:07:17.689Z,6.30
2023-01-13T00:10:01.537Z,6.31
2023-01-13T00:12:30.337Z,6.26
2023-01-13T00:15:10.932Z,6.29
2023-01-13T00:18:14.487Z,6.18
2023-01-13T00:20:50.882Z,6.17
2023-01-13T00:23:27.077Z,6.09
2023-01-13T00:26:44.129Z,6.04
2023-01-13T00:29:37.702Z,6.05
2023-01-13T00:32:08.736Z,6.07
2023-01-13T00:35:00.183Z,6.10
2023-01-13T00:37:42.741Z,6.15
2023-01-13T00:40:29.376Z,5.99
2023-01-13T00:43:26.780Z,5.97
2023-01-13T00:46:03.965Z,5.94
2023-01-13T00:49:17.755Z,5.90
2023-01-13T00:52:29.036Z,6.10
2023-01-13T00:55:33.147Z,6.08
2023-01-13T00:58:26.319Z,6.16
2023-01-13T01:01:45.606Z,6.18
2023-01-13T01:04:40.205Z,6.25
2023-01-13T01:07:52.074Z,6.11
2023-01-13T01:10:48.713Z,6.28
2023-01-13T01:13:26.816Z,6.36
2023-01-13T01:16:36.783Z,6.38
2023-01-13T01:19:15.645Z,6.39
2023-01-13T01:21:49.508Z,6.28
2023-01-13T01:24:50.746Z,6.42
2023-01-13T01:28:01.006Z,6.61
2023-01-13T01:31:07.149Z,6.51
2023-01-13T01:34:04.526Z,6.52
2023-01-13T01:37:21.013Z,6.53
2023-01-13T01:40:02.426Z,6.55
2023-01-13T01:43:22.095Z,6.54
2023-01-13T01:46:23.870Z,6.34
2023-01-13T01:49:41.076Z,6.38
2023-01-13T01:52:38.735Z,6.26
2023-01-13T01:55:32.511Z,6.35
2023-01-13T01:58:21.911Z,6.26
2023-01-13T02:01:12.947Z,6.23
2023-01-13T02:03:53.086Z,6.29
2023-01-13T02:06:21.724Z,6.24
2023-01-13T02:08:50.237Z,6.31
2023-01-13T02:11:53.813Z,6.35
2023-01-13T02:14:45.968Z,6.33
2023-01-13T02:18:01.741Z,6.46
2023-01-13T02:20:56.841Z,6.57
2023-01-13T02:24:34.137Z,6.64
2023-01-13T02:27:29.662Z,6.55
2023-01-13T02:30:47.071Z,6.69
2023-01-13T02:33:35.212Z,6.61
2023-01-13T02:36:46.392Z,6.63
2023-01-13T02:39:19.889Z,6.55
2023-01-13T02:42:46.430Z,6.50
2023-01-13T02:45:33.657Z,6.50
2023-01-13T02:48:07.150Z,6.50
2023-01-13T02:51:19.256Z,6.64
2023-01-13T02:54:05.489Z,6.56
2023-01-13T02:56:51.183Z,6.56
2023-01-13T02:59:26.289Z,6.64
2023-01-13T03:02:22.876Z,6.68
2023-01-13T03:04:58.764Z,6.80
2023-01-13T03:08:28.681Z,6.86
2023-01-13T03:11:28.433Z,6.91
2023-01-13T03:14:38.788Z,6.80
2023-01-13T03:18:25.375Z,6.75
2023-01-13T03:21:26.718Z,6.85
2023-01-13T03:24:11.962Z,6.83
2023-01-13T03:27:38.526Z,6.86
2023-01-13T03:30:59.024Z,6.86
2023-01-13T03:33:39.887Z,6.96
2023-01-13T03:36:33.767Z,7.06
2023-01-13T03:39:12.492Z,7.11
2023-01-13T03:41:54.695Z,7.12
2023-01-13T03:45:20.936Z,7.16
2023-01-13T03:48:07.571Z,7.08
2023-01-13T03:51:04.272Z,6.95
2023-01-13T03:54:13.610Z,7.05
2023-01-13T03:56:58.886Z,7.03
2023-01-13T03:59:52.037Z,6.96
2023-01-13T04:02:51.246Z,7.02
2023-01-13T04:06:34.166Z,7.10
2023-01-13T04:09:43.606Z,6.96
2023-01-13T04:12:54.070Z,7.08
2023-01-13T04:15:46.441Z,7.18
2023-01-13T04:18:33.189Z,7.15
2023-01-13T04:21:24.430Z,7.18
2023-01-13T04:24:29.780Z,7.08
2023-01-13T04:27:13.055Z,6.98
2023-01-13T04:29:50.192Z,7.14
2023-01-13T04:32:48.797Z,7.20
2023-01-13T04:35:41.932Z,7.27
2023-01-13T04:38:38.318Z,7.28
2023-01-13T04:41:48.099Z,7.24
2023-01-13T04:44:25.505Z,7.25
2023-01-13T04:47:16.721Z,7.24
2023-01-13T04:50:06.380Z,7.31
2023-01-13T04:53:14.602Z,7.26
2023-01-13T04:56:06.527Z,7.24
2023-01-13T04:58:46.375Z,7.27
2023-01-13T05:01:42.074Z,7.25
2023-01-13T05:05:17.236Z,7.24
2023-01-13T05:08:13.569Z,6.98
2023-01-13T05:11:24.033Z,7.11
2023-01-13T05:14:19.752Z,7.15
2023-01-13T05:17:03.268Z,7.15
2023-01-13T05:19:43.957Z,7.15
2023-01-13T05:22:36.813Z,7.11
2023-01-13T05:25:25.770Z,7.08
2023-01-13T05:28:09.702Z,7.13
2023-01-13T05:30:44.112Z,7.19
2023-01-13T05:33:21.616Z,7.17
2023-01-13T05:35:57.161Z,7.23
2023-01-13T05:38:30.453Z,7.15
2023-01-13T05:41:26.251Z,7.23
2023-01-13T05:44:05.411Z,7.24
2023-01-13T05:46:51.773Z,7.23
2023-01-13T05:49:23.374Z,7.20
2023-01-13T05:51:56.809Z,7.24
2023-01-13T05:54:41.202Z,7.34
2023-01-13T05:57:21.361Z,7.29
2023-01-13T06:00:14.924Z,7.36
2023-01-13T06:02:43.508Z,7.31
2023-01-13T06:05:26.401Z,7.38
2023-01-13T06:08:13.546Z,7.38
2023-01-13T06:10:44.961Z,7.18
2023-01-13T06:13:16.234Z,7.06
2023-01-13T06:15:47.818Z,7.04
2023-01-13T06:18:19.007Z,7.15
2023-01-13T06:21:06.582Z,7.14
2023-01-13T06:24:04.494Z,7.29
2023-01-13T06:26:48.390Z,7.40
2023-01-13T06:29:33.690Z,7.44
2023-01-13T06:32:29.263Z,7.38
2023-01-13T06:35:13.287Z,7.31
2023-01-13T06:37:44.960Z,7.47
2023-01-13T06:40:30.504Z,7.63
2023-01-13T06:43:17.167Z,7.67
2023-01-13T06:45:58.528Z,7.59
2023-01-13T06:48:35.549Z,7.68
2023-01-13T06:51:13.003Z,7.66
2023-01-13T06:54:04.709Z,7.72
2023-01-13T06:56:56.343Z,7.81
2023-01-13T06:59:39.364Z,7.95
2023-01-13T07:02:24.730Z,8.09
2023-01-13T07:04:56.600Z,8.12
2023-01-13T07:07:38.391Z,8.10
2023-01-13T07:10:35.309Z,8.08
2023-01-13T07:13:38.942Z,8.19
2023-01-13T07:16:10.607Z,8.28
2023-01-13T07:19:01.477Z,8.27
2023-01-13T07:21:33.875Z,8.37
2023-01-13T07:24:08.195Z,8.21
2023-01-13T07:27:05.657Z,8.38
2023-01-13T07:29:41.400Z,8.42
2023-01-13T07:32:41.631Z,8.45
2023-01-13T07:35:26.899Z,8.40
2023-01-13T07:38:14.551Z,8.35
2023-01-13T07:41:24.084Z,8.40
2023-01-13T07:44:03.002Z,8.42
2023-01-13T07:46:34.340Z,8.29
2023-01-13T07:49:10.682Z,8.32
2023-01-13T07:51:42.469Z,8.28
2023-01-13T07:54:19.419Z,8.21
2023-01-13T07:56:58.056Z,8.40
2023-01-13T07:59:29.547Z,8.50
2023-01-13T08:02:24.255Z,8.44
2023-01-13T08:05:18.285Z,8.54
2023-01-13T08:08:13.784Z,8.46
2023-01-13T08:10:48.724Z,8.70
2023-01-13T08:13:29.086Z,8.54
2023-01-13T08:16:56.681Z,8.68
2023-01-13T08:19:33.117Z,8.79
2023-01-13T08:22:13.067Z,8.92
2023-01-13T08:24:46.671Z,8.95
2023-01-13T08:27:23.918Z,8.87
2023-01-13T08:30:09.751Z,9.06
2023-01-13T08:33:11.046Z,9.20
2023-01-13T08:36:28.124Z,8.75
2023-01-13T08:39:50.878Z,7.69
2023-01-13T08:42:56.330Z,8.03
2023-01-13T08:46:11.621Z,8.75
2023-01-13T08:49:17.464Z,9.16
2023-01-13T08:52:34.146Z,9.53
2023-01-13T08:55:17.983Z,9.60
2023-01-13T08:58:14.487Z,9.64
2023-01-13T09:01:15.262Z,9.66
2023-01-13T09:04:27.703Z,8.80
2023-01-13T09:07:16.271Z,8.54
2023-01-13T09:09:57.222Z,9.13
2023-01-13T09:12:53.286Z,9.58
2023-01-13T09:15:27.273Z,9.95
2023-01-13T09:18:06.712Z,10.24
2023-01-13T09:20:50.572Z,10.25
2023-01-13T09:23:24.286Z,9.58
2023-01-13T09:25:56.228Z,8.95
2023-01-13T09:28:32.978Z,8.95
2023-01-13T09:31:01.815Z,9.64
2023-01-13T09:33:49.458Z,10.16
2023-01-13T09:36:26.804Z,10.61
2023-01-13T09:39:01.573Z,10.85
2023-01-13T09:42:21.360Z,10.27
2023-01-13T09:45:12.672Z,9.36
2023-01-13T09:48:27.443Z,9.37
2023-01-13T09:51:30.804Z,10.26
2023-01-13T09:55:06.796Z,10.82
2023-01-13T09:57:41.422Z,10.60
2023-01-13T10:00:28.142Z,9.80
2023-01-13T10:03:36.529Z,9.26
2023-01-13T10:07:01.481Z,9.81
2023-01-13T10:10:02.391Z,10.57
2023-01-13T10:12:52.782Z,10.96
2023-01-13T10:15:32.463Z,11.09
2023-01-13T10:18:57.379Z,10.55
2023-01-13T10:23:13.778Z,9.62
2023-01-13T10:26:38.745Z,10.23
2023-01-13T10:30:10.302Z,10.82
2023-01-13T10:33:27.887Z,10.23
2023-01-13T10:36:48.965Z,9.41
2023-01-13T10:39:56.222Z,9.70
2023-01-13T10:43:13.354Z,10.47
2023-01-13T10:46:34.554Z,11.16
2023-01-13T10:49:33.778Z,11.01
2023-01-13T10:52:49.557Z,10.30
2023-01-13T10:55:45.583Z,9.91
2023-01-13T10:58:37.101Z,10.62
2023-01-13T11:01:54.884Z,11.04
2023-01-13T11:06:00.825Z,11.49
2023-01-13T11:08:49.748Z,11.04
2023-01-13T11:12:31.572Z,10.27
2023-01-13T11:16:52.799Z,10.41
2023-01-13T11:20:02.328Z,11.17
2023-01-13T11:22:53.194Z,11.58
2023-01-13T11:26:08.404Z,11.30
2023-01-13T11:29:57.884Z,10.33
2023-01-13T11:33:11.945Z,9.58
2023-01-13T11:37:01.013Z,9.87
2023-01-13T11:40:35.668Z,10.81
2023-01-13T11:43:52.295Z,11.35
2023-01-13T11:47:08.899Z,11.67
2023-01-13T11:50:35.494Z,10.89
2023-01-13T11:54:17.686Z,9.94
2023-01-13T11:57:42.701Z,9.52
2023-01-13T12:00:48.353Z,10.39
2023-01-13T12:04:09.159Z,10.98
2023-01-13T12:07:58.697Z,11.35
2023-01-13T12:12:34.308Z,10.62
2023-01-13T12:15:27.523Z,9.83
2023-01-13T12:19:05.720Z,10.50
2023-01-13T12:22:42.501Z,11.15
2023-01-13T12:26:15.367Z,11.33
2023-01-13T12:30:06.769Z,10.30
2023-01-13T12:33:46.266Z,9.42
2023-01-13T12:36:50.532Z,10.01
2023-01-13T12:40:18.810Z,10.59
2023-01-13T12:44:11.658Z,11.12
2023-01-13T12:47:53.004Z,11.48
2023-01-13T12:51:03.142Z,10.79
2023-01-13T12:54:25.353Z,9.86
2023-01-13T12:57:59.889Z,9.34
2023-01-13T13:01:46.575Z,10.20
2023-01-13T13:05:14.394Z,10.98
2023-01-13T13:09:27.905Z,11.28
2023-01-13T13:13:41.885Z,10.66
2023-01-13T13:16:51.526Z,9.36
2023-01-13T13:19:59.703Z,8.94
2023-01-13T13:23:11.509Z,9.69
2023-01-13T13:26:23.843Z,10.30
2023-01-13T13:30:29.072Z,10.75
2023-01-13T13:34:10.048Z,10.99
2023-01-13T13:37:53.173Z,10.52
2023-01-13T13:41:00.261Z,9.36
2023-01-13T13:44:07.550Z,8.66
2023-01-13T13:46:57.530Z,8.45
2023-01-13T13:50:15.206Z,9.29
2023-01-13T13:53:33.026Z,9.88
2023-01-13T13:56:03.754Z,10.29
2023-01-13T13:58:53.951Z,10.49
2023-01-13T14:01:35.390Z,10.59
2023-01-13T14:04:26.362Z,10.27
2023-01-13T14:07:44.455Z,9.38
2023-01-13T14:10:30.138Z,8.67
2023-01-13T14:13:26.539Z,9.17
2023-01-13T14:16:30.451Z,9.78
2023-01-13T14:20:07.794Z,10.25
2023-01-13T14:23:05.760Z,10.45
2023-01-13T14:25:53.637Z,9.87
2023-01-13T14:28:35.934Z,8.90
2023-01-13T14:31:08.744Z,8.81
2023-01-13T14:33:50.163Z,9.31
2023-01-13T14:36:34.396Z,9.71
2023-01-13T14:39:06.101Z,9.84
2023-01-13T14:41:53.000Z,10.03
2023-01-13T14:44:46.377Z,10.18
2023-01-13T14:47:47.714Z,10.24
2023-01-13T14:50:31.560Z,10.25
2023-01-13T14:54:07.513Z,10.12
2023-01-13T14:57:31.935Z,8.97
2023-01-13T15:00:33.044Z,8.52
2023-01-13T15:03:09.251Z,9.02
2023-01-13T15:05:58.678Z,9.44
2023-01-13T15:08:38.943Z,9.70
2023-01-13T15:11:40.732Z,9.88
2023-01-13T15:14:31.300Z,10.01
2023-01-13T15:17:27.428Z,10.12
2023-01-13T15:20:19.183Z,10.19
2023-01-13T15:23:18.312Z,10.16
2023-01-13T15:25:55.321Z,9.31
2023-01-13T15:28:32.102Z,8.40
2023-01-13T15:31:26.498Z,8.49
2023-01-13T15:34:27.831Z,9.13
2023-01-13T15:37:13.027Z,9.36
2023-01-13T15:39:50.495Z,9.66
2023-01-13T15:42:49.544Z,9.80
2023-01-13T15:45:46.293Z,9.91
2023-01-13T15:48:17.477Z,9.92
2023-01-13T15:50:55.492Z,10.03
2023-01-13T15:53:33.754Z,9.97
2023-01-13T15:56:36.267Z,9.25
2023-01-13T16:00:31.654Z,8.27
2023-01-13T16:03:57.102Z,8.96
2023-01-13T16:06:52.104Z,9.53
2023-01-13T16:09:45.891Z,9.80
2023-01-13T16:12:17.157Z,9.74
2023-01-13T16:14:56.665Z,9.87
2023-01-13T16:17:37.670Z,10.04
2023-01-13T16:20:24.885Z,10.19
2023-01-13T16:23:19.974Z,10.27
2023-01-13T16:26:14.523Z,10.05
2023-01-13T16:28:55.557Z,8.87
2023-01-13T16:32:37.358Z,8.09
2023-01-13T16:36:21.301Z,8.27
2023-01-13T16:39:18.188Z,8.95
2023-01-13T16:42:14.444Z,9.28
2023-01-13T16:45:13.807Z,9.54
2023-01-13T16:48:19.702Z,9.69
2023-01-13T16:51:38.839Z,9.87
2023-01-13T16:55:28.241Z,9.97
2023-01-13T16:59:02.253Z,10.14
2023-01-13T17:02:41.589Z,10.13
2023-01-13T17:06:23.481Z,8.88
2023-01-13T17:09:47.677Z,8.63
2023-01-13T17:12:25.268Z,9.27
2023-01-13T17:15:36.562Z,9.54
2023-01-13T17:18:13.791Z,9.76
2023-01-13T17:21:24.100Z,9.86
2023-01-13T17:24:49.401Z,9.98
2023-01-13T17:27:21.580Z,10.18
2023-01-13T17:30:05.216Z,10.13
2023-01-13T17:32:33.898Z,9.37
2023-01-13T17:35:13.417Z,8.52
2023-01-13T17:37:53.934Z,7.88
2023-01-13T17:40:40.814Z,8.18
2023-01-13T17:43:14.452Z,8.70
2023-01-13T17:45:43.214Z,9.20
2023-01-13T17:48:25.174Z,9.49
2023-01-13T17:50:58.785Z,9.71
2023-01-13T17:53:33.937Z,9.85
2023-01-13T17:56:16.947Z,9.93
2023-01-13T17:59:24.847Z,10.05
2023-01-13T18:02:11.370Z,10.15
2023-01-13T18:05:12.793Z,10.14
2023-01-13T18:08:11.796Z,9.31
2023-01-13T18:11:03.500Z,8.30
2023-01-13T18:14:09.586Z,7.85
2023-01-13T18:17:01.404Z,8.60
2023-01-13T18:20:11.667Z,9.10
2023-01-13T18:23:11.784Z,9.41
2023-01-13T18:26:09.313Z,9.58
2023-01-13T18:28:45.270Z,9.77
2023-01-13T18:32:14.427Z,9.95
2023-01-13T18:35:06.071Z,9.91
2023-01-13T18:37:52.245Z,9.98
2023-01-13T18:40:36.423Z,10.05
2023-01-13T18:43:39.459Z,10.13
2023-01-13T18:46:12.816Z,10.19
2023-01-13T18:48:48.947Z,9.47
2023-01-13T18:51:17.699Z,8.55
2023-01-13T18:53:46.175Z,7.90
2023-01-13T18:56:25.896Z,7.55
2023-01-13T18:59:03.310Z,8.06
2023-01-13T19:01:37.275Z,8.73
2023-01-13T19:04:20.142Z,9.17
2023-01-13T19:07:12.105Z,9.49
2023-01-13T19:10:09.790Z,9.47
2023-01-13T19:13:18.697Z,9.69
2023-01-13T19:16:30.965Z,9.91
2023-01-13T19:19:23.110Z,10.00
2023-01-13T19:22:01.825Z,9.89
2023-01-13T19:24:47.014Z,9.99
2023-01-13T19:27:21.976Z,10.09
2023-01-13T19:29:59.061Z,10.01
2023-01-13T19:32:38.650Z,10.09
2023-01-13T19:35:13.161Z,10.12
2023-01-13T19:38:01.988Z,9.75
2023-01-13T19:41:02.259Z,8.86
2023-01-13T19:44:16.106Z,8.37
2023-01-13T19:47:08.953Z,9.01
2023-01-13T19:49:54.437Z,9.42
2023-01-13T19:52:41.858Z,9.74
2023-01-13T19:55:54.359Z,9.90
2023-01-13T19:58:42.072Z,9.96
2023-01-13T20:01:41.083Z,10.11
2023-01-13T20:04:37.315Z,10.17
2023-01-13T20:07:24.646Z,10.32
2023-01-13T20:10:47.210Z,10.33
2023-01-13T20:13:27.845Z,10.21
2023-01-13T20:16:35.580Z,10.27
2023-01-13T20:19:19.638Z,10.26
2023-01-13T20:21:53.719Z,10.45
2023-01-13T20:24:54.854Z,10.48
2023-01-13T20:27:50.672Z,10.44
2023-01-13T20:30:47.625Z,10.38
2023-01-13T20:33:32.288Z,10.33
2023-01-13T20:36:11.181Z,10.35
2023-01-13T20:39:09.380Z,10.29
2023-01-13T20:43:10.019Z,10.25
2023-01-13T20:46:27.358Z,10.37
2023-01-13T20:49:53.425Z,10.31
2023-01-13T20:53:08.955Z,10.36
2023-01-13T20:56:31.633Z,10.36
2023-01-13T20:59:43.552Z,10.24
2023-01-13T21:02:46.056Z,10.26
2023-01-13T21:06:23.175Z,10.35
2023-01-13T21:09:04.536Z,10.32
2023-01-13T21:12:24.193Z,10.32
2023-01-13T21:15:42.624Z,10.30
2023-01-13T21:18:42.711Z,10.36
2023-01-13T21:21:54.135Z,10.28
2023-01-13T21:25:48.808Z,10.19
2023-01-13T21:28:34.372Z,10.09
2023-01-13T21:31:41.290Z,10.01
2023-01-13T21:34:54.089Z,10.09
2023-01-13T21:38:18.963Z,10.17
2023-01-13T21:41:08.864Z,10.14
2023-01-13T21:44:26.048Z,10.14
2023-01-13T21:48:10.446Z,10.11
2023-01-13T21:51:18.037Z,10.14
2023-01-13T21:54:13.753Z,10.06
2023-01-13T21:57:02.863Z,10.08
2023-01-13T21:59:56.741Z,9.80
2023-01-13T22:02:35.758Z,9.83
2023-01-13T22:05:40.454Z,9.90
2023-01-13T22:08:32.134Z,9.96
2023-01-13T22:11:44.992Z,9.96
2023-01-13T22:14:24.023Z,9.95
2023-01-13T22:17:09.855Z,9.89
2023-01-13T22:20:59.692Z,9.81
2023-01-13T22:24:19.644Z,9.93
2023-01-13T22:27:43.299Z,9.96
2023-01-13T22:30:32.313Z,9.88
2023-01-13T22:33:24.345Z,9.96
2023-01-13T22:36:11.048Z,10.08
2023-01-13T22:39:17.114Z,10.17
2023-01-13T22:42:05.055Z,10.22
2023-01-13T22:44:56.778Z,10.22
2023-01-13T22:47:49.743Z,10.23
2023-01-13T22:51:04.309Z,10.21
2023-01-13T22:53:58.336Z,10.11
2023-01-13T22:56:52.857Z,10.00
2023-01-13T22:59:42.745Z,9.85
2023-01-13T23:03:01.183Z,9.87
2023-01-13T23:06:28.298Z,10.03
2023-01-13T23:09:52.942Z,10.13
2023-01-13T23:13:29.417Z,10.09
2023-01-13T23:17:18.423Z,10.17
2023-01-13T23:20:33.040Z,10.08
2023-01-13T23:23:52.724Z,10.10
2023-01-13T23:27:13.540Z,10.16
2023-01-13T23:30:22.262Z,10.18
2023-01-13T23:33:12.258Z,10.25
2023-01-13T23:36:11.121Z,10.09
2023-01-13T23:39:01.886Z,9.99
2023-01-13T23:42:30.729Z,10.07
2023-01-13T23:45:43.877Z,10.20
2023-01-13T23:49:04.660Z,10.11
2023-01-13T23:52:16.053Z,10.03
2023-01-13T23:55:54.056Z,10.10
2023-01-13T23:58:42.061Z,10.14
